This is the latest recevied weather packets stored in our database for station/object E27EKO-13. If no packets are shown the sender has not sent any weather packets the latest 10 day(s).
| Time | Temp. | Humidity | Pressure | Rain* | Wind** | Luminosity | Snow |
|---|---|---|---|---|---|---|---|
| 1777883584 | 33.33° C | 65% | 1006 hPa | - | - | 0 W/m² | - |
| 1777883262 | 32.78° C | 65% | 1006 hPa | - | - | 0 W/m² | - |
| 1777882940 | 32.22° C | 67% | 1006 hPa | - | - | 0 W/m² | - |
| 1777882618 | 32.22° C | 68% | 1006 hPa | - | - | 0 W/m² | - |
| 1777882296 | 33.33° C | 64% | 1007 hPa | - | - | 0 W/m² | - |
| 1777881974 | 34.44° C | 60% | 1007 hPa | - | - | 0 W/m² | - |
| 1777881652 | 35° C | 59% | 1007 hPa | - | - | 0 W/m² | - |
| 1777881330 | 36.11° C | 60% | 1007 hPa | - | - | 0 W/m² | - |
| 1777881008 | 36.67° C | 58% | 1007 hPa | - | - | 0 W/m² | - |
| 1777880668 | 38.33° C | 58% | 1007 hPa | - | - | 0 W/m² | - |
| 1777880345 | 38.89° C | 56% | 1006 hPa | - | - | 0 W/m² | - |
| 1777880023 | 40° C | 54% | 1006 hPa | - | - | 0 W/m² | - |
| 1777879701 | 40.56° C | 52% | 1006 hPa | - | - | 0 W/m² | - |
| 1777879379 | 41.11° C | 51% | 1006 hPa | - | - | 0 W/m² | - |
| 1777879138 | 41.67° C | 51% | 1006 hPa | - | - | 0 W/m² | - |
| 1777879014 | 41.67° C | 50% | 1006 hPa | - | - | 0 W/m² | - |
| 1777878692 | 41.67° C | 48% | 1006 hPa | - | - | 0 W/m² | - |
| 1777878370 | 41.11° C | 51% | 1006 hPa | - | - | 0 W/m² | - |
| 1777878048 | 41.11° C | 50% | 1006 hPa | - | - | 0 W/m² | - |
| 1777877726 | 41.67° C | 50% | 1006 hPa | - | - | 0 W/m² | - |
| 1777877404 | 41.11° C | 50% | 1006 hPa | - | - | 0 W/m² | - |
| 1777877082 | 41.67° C | 49% | 1006 hPa | - | - | 0 W/m² | - |
| 1777876760 | 41.67° C | 49% | 1007 hPa | - | - | 0 W/m² | - |
| 1777876438 | 41.67° C | 50% | 1007 hPa | - | - | 0 W/m² | - |
| 1777876116 | 41.67° C | 51% | 1007 hPa | - | - | 0 W/m² | - |
* Rain since midnight (hover to see other rain measurements)
** Current wind speed in m/s (hover to see current wind gust speed)